createdAt,value
2019-04-30T00:01:58.998Z,94.60
2019-04-30T00:04:29.809Z,94.80
2019-04-30T00:06:59.025Z,94.80
2019-04-30T00:09:27.965Z,94.80
2019-04-30T00:12:00.943Z,95.00
2019-04-30T00:14:32.009Z,95.10
2019-04-30T00:16:56.207Z,95.00
2019-04-30T00:19:25.938Z,95.10
2019-04-30T00:22:00.068Z,95.20
2019-04-30T00:24:25.998Z,95.20
2019-04-30T00:26:55.169Z,95.30
2019-04-30T00:29:28.035Z,95.40
2019-04-30T00:31:59.349Z,95.50
2019-04-30T00:34:24.962Z,95.60
2019-04-30T00:36:53.648Z,95.70
2019-04-30T00:39:22.436Z,95.70
2019-04-30T00:41:50.913Z,95.70
2019-04-30T00:44:19.848Z,95.70
2019-04-30T00:46:49.585Z,95.70
2019-04-30T00:49:22.903Z,95.70
2019-04-30T00:51:49.769Z,95.80
2019-04-30T00:54:22.370Z,96.00
2019-04-30T00:56:48.787Z,96.00
2019-04-30T00:59:17.351Z,96.00
2019-04-30T01:01:56.390Z,95.90
2019-04-30T01:04:29.553Z,95.80
2019-04-30T01:07:00.265Z,96.00
2019-04-30T01:09:28.226Z,96.00
2019-04-30T01:11:56.751Z,96.10
2019-04-30T01:14:28.323Z,96.30
2019-04-30T01:16:55.474Z,96.00
2019-04-30T01:19:30.134Z,96.30
2019-04-30T01:21:53.537Z,96.40
2019-04-30T01:24:23.416Z,96.40
2019-04-30T01:26:52.638Z,96.70
2019-04-30T01:29:23.294Z,96.60
2019-04-30T01:31:51.781Z,96.90
2019-04-30T01:34:20.282Z,96.40
2019-04-30T01:36:52.221Z,96.70
2019-04-30T01:39:19.546Z,96.70
2019-04-30T01:41:48.807Z,96.50
2019-04-30T01:44:19.386Z,96.50
2019-04-30T01:46:51.322Z,96.60
2019-04-30T01:49:19.993Z,96.50
2019-04-30T01:51:48.676Z,96.30
2019-04-30T01:54:21.150Z,96.30
2019-04-30T01:57:05.940Z,96.30
2019-04-30T01:59:53.051Z,96.30
2019-04-30T02:02:23.182Z,96.40
2019-04-30T02:04:51.625Z,96.50
2019-04-30T02:07:20.122Z,96.40
2019-04-30T02:09:48.935Z,96.50
2019-04-30T02:12:21.687Z,96.40
2019-04-30T02:14:49.447Z,96.50
2019-04-30T02:17:19.261Z,96.50
2019-04-30T02:19:55.984Z,96.50
2019-04-30T02:22:18.886Z,96.70
2019-04-30T02:24:48.674Z,96.60
2019-04-30T02:27:19.110Z,96.70
2019-04-30T02:29:49.403Z,96.60
2019-04-30T02:32:20.554Z,96.60
2019-04-30T02:34:49.856Z,96.60
2019-04-30T02:37:21.031Z,96.60
2019-04-30T02:39:50.281Z,96.70
2019-04-30T02:42:20.432Z,96.70
2019-04-30T02:44:50.548Z,96.70
2019-04-30T02:47:21.704Z,96.90
2019-04-30T02:49:53.338Z,96.90
2019-04-30T02:52:24.694Z,97.30
2019-04-30T02:54:56.388Z,97.20
2019-04-30T02:57:24.826Z,97.20
2019-04-30T03:00:09.708Z,97.30
2019-04-30T03:02:39.834Z,97.60
2019-04-30T03:05:12.733Z,97.50
2019-04-30T03:07:40.512Z,97.70
2019-04-30T03:10:10.150Z,97.60
2019-04-30T03:12:40.261Z,97.70
2019-04-30T03:15:09.964Z,97.80
2019-04-30T03:17:52.558Z,97.90
2019-04-30T03:20:35.115Z,97.80
2019-04-30T03:22:55.550Z,98.00
2019-04-30T03:25:24.103Z,98.20
2019-04-30T03:27:52.546Z,98.30
2019-04-30T03:30:22.155Z,98.40
2019-04-30T03:32:56.613Z,98.30
2019-04-30T03:35:22.643Z,98.50
2019-04-30T03:37:51.235Z,98.40
2019-04-30T03:40:20.263Z,98.60
2019-04-30T03:42:49.469Z,98.60
2019-04-30T03:45:20.432Z,98.60
2019-04-30T03:47:50.518Z,98.60
2019-04-30T03:50:19.865Z,98.70
2019-04-30T03:52:50.362Z,98.70
2019-04-30T03:55:20.554Z,98.40
2019-04-30T03:57:51.636Z,98.40
2019-04-30T04:00:20.495Z,98.50
2019-04-30T04:02:50.131Z,98.50
2019-04-30T04:05:32.759Z,98.60
2019-04-30T04:08:02.924Z,98.50
2019-04-30T04:10:50.243Z,98.40
2019-04-30T04:13:19.762Z,98.40
2019-04-30T04:15:49.988Z,98.40
2019-04-30T04:18:20.251Z,98.30
2019-04-30T04:20:50.461Z,98.20
2019-04-30T04:23:19.334Z,98.10
2019-04-30T04:25:49.912Z,97.90
2019-04-30T04:28:20.251Z,97.70
2019-04-30T04:30:50.549Z,97.60
2019-04-30T04:33:19.951Z,97.50
2019-04-30T04:35:49.856Z,97.40
2019-04-30T04:38:20.402Z,97.40
2019-04-30T04:40:50.233Z,97.30
2019-04-30T04:43:20.234Z,97.30
2019-04-30T04:45:49.721Z,97.20
2019-04-30T04:48:19.851Z,97.10
2019-04-30T04:50:50.177Z,97.20
2019-04-30T04:53:19.628Z,97.10
2019-04-30T04:55:49.908Z,97.00
2019-04-30T04:58:21.547Z,97.00
2019-04-30T05:00:49.435Z,96.60
2019-04-30T05:03:22.554Z,96.70
2019-04-30T05:05:51.241Z,96.50
2019-04-30T05:08:19.755Z,96.60
2019-04-30T05:10:49.511Z,96.40
2019-04-30T05:13:19.193Z,96.50
2019-04-30T05:15:51.284Z,96.20
2019-04-30T05:18:19.136Z,96.30
2019-04-30T05:20:49.091Z,96.30
2019-04-30T05:23:19.559Z,96.20
2019-04-30T05:25:49.088Z,96.10
2019-04-30T05:28:18.906Z,96.20
2019-04-30T05:30:49.261Z,95.90
2019-04-30T05:33:18.649Z,95.90
2019-04-30T05:35:47.263Z,95.70
2019-04-30T05:38:15.982Z,95.30
2019-04-30T05:40:44.431Z,95.50
2019-04-30T05:43:12.874Z,95.30
2019-04-30T05:45:41.397Z,95.00
2019-04-30T05:48:09.849Z,95.00
2019-04-30T05:50:39.138Z,94.70
2019-04-30T05:53:09.024Z,94.50
2019-04-30T05:55:39.384Z,94.50
2019-04-30T05:58:09.377Z,95.00
2019-04-30T06:00:40.057Z,94.20
2019-04-30T06:03:09.428Z,94.40
2019-04-30T06:05:39.419Z,93.70
2019-04-30T06:08:09.293Z,93.80
2019-04-30T06:10:39.670Z,93.70
2019-04-30T06:13:09.714Z,93.40
2019-04-30T06:15:51.995Z,93.20
2019-04-30T06:18:20.551Z,92.70
2019-04-30T06:20:48.999Z,92.60
2019-04-30T06:23:19.389Z,92.30
2019-04-30T06:25:57.468Z,92.20
2019-04-30T06:28:20.557Z,91.70
2019-04-30T06:30:49.370Z,92.30
2019-04-30T06:33:19.305Z,92.00
2019-04-30T06:35:49.322Z,91.90
2019-04-30T06:38:18.582Z,91.60
2019-04-30T06:40:48.853Z,90.90
2019-04-30T06:43:18.952Z,90.50
2019-04-30T06:45:50.919Z,90.70
2019-04-30T06:48:19.740Z,90.40
2019-04-30T06:50:49.221Z,90.00
2019-04-30T06:53:19.233Z,90.00
2019-04-30T06:55:49.217Z,89.80
2019-04-30T06:58:20.403Z,88.50
2019-04-30T07:00:49.634Z,86.80
2019-04-30T07:03:19.190Z,86.50
2019-04-30T07:05:48.812Z,86.90
2019-04-30T07:08:41.996Z,86.90
2019-04-30T07:11:21.121Z,86.30
2019-04-30T07:13:52.356Z,84.90
2019-04-30T07:16:20.927Z,84.50
2019-04-30T07:18:49.425Z,85.00
2019-04-30T07:21:19.836Z,83.90
2019-04-30T07:23:48.559Z,84.00
2019-04-30T07:26:22.667Z,82.30
2019-04-30T07:28:52.783Z,82.20
2019-04-30T07:31:19.254Z,80.30
2019-04-30T07:36:19.563Z,80.90
2019-04-30T07:38:54.558Z,80.70
2019-04-30T07:41:18.989Z,81.00
2019-04-30T07:43:49.373Z,78.00
2019-04-30T07:46:19.799Z,78.10
2019-04-30T07:48:50.101Z,77.00
2019-04-30T07:51:21.077Z,76.90
2019-04-30T07:53:49.645Z,75.80
2019-04-30T07:56:25.552Z,74.20
2019-04-30T07:58:50.522Z,75.50
2019-04-30T08:01:19.618Z,74.40
2019-04-30T08:04:08.668Z,74.00
2019-04-30T08:06:36.683Z,73.30
2019-04-30T08:09:10.308Z,73.00
2019-04-30T08:09:34.157Z,80.40
2019-04-30T08:11:41.883Z,71.60
2019-04-30T08:14:09.778Z,70.90
2019-04-30T08:16:38.662Z,71.10
2019-04-30T08:19:09.011Z,71.20
2019-04-30T08:21:38.746Z,71.30
2019-04-30T08:24:09.306Z,69.90
2019-04-30T08:26:39.632Z,70.40
2019-04-30T08:29:09.589Z,68.70
2019-04-30T08:31:40.689Z,67.90
2019-04-30T08:34:10.625Z,65.90
2019-04-30T08:36:38.712Z,67.10
2019-04-30T08:39:09.589Z,66.80
2019-04-30T08:41:39.225Z,65.60
2019-04-30T08:44:09.424Z,66.20
2019-04-30T08:46:38.781Z,64.90
2019-04-30T08:49:09.367Z,64.30
2019-04-30T08:51:38.799Z,64.60
2019-04-30T08:54:09.538Z,64.00
2019-04-30T08:56:38.824Z,63.60
2019-04-30T08:59:08.756Z,63.90
2019-04-30T09:01:38.693Z,64.50
2019-04-30T09:04:07.677Z,62.50
2019-04-30T09:06:38.672Z,64.80
2019-04-30T09:09:10.707Z,65.60
2019-04-30T09:11:51.714Z,63.60
2019-04-30T09:14:08.722Z,62.60
2019-04-30T09:16:39.204Z,61.00
2019-04-30T09:19:07.423Z,61.60
2019-04-30T09:21:35.879Z,60.80
2019-04-30T09:24:04.330Z,61.40
2019-04-30T09:26:32.823Z,62.90
2019-04-30T09:29:01.324Z,62.80
2019-04-30T09:31:29.855Z,59.10
2019-04-30T09:34:00.779Z,60.70
2019-04-30T09:36:29.212Z,60.90
2019-04-30T09:38:58.802Z,59.80
2019-04-30T09:41:28.792Z,58.70
2019-04-30T09:43:59.514Z,59.50
2019-04-30T09:46:29.812Z,59.00
2019-04-30T09:48:59.679Z,59.00
2019-04-30T09:51:30.335Z,58.00
2019-04-30T09:54:00.561Z,58.20
2019-04-30T09:56:29.419Z,58.80
2019-04-30T09:58:59.295Z,58.50
2019-04-30T10:01:27.915Z,59.60
2019-04-30T10:03:56.757Z,57.50
2019-04-30T10:06:37.011Z,59.00
2019-04-30T10:08:55.841Z,58.30
2019-04-30T10:11:37.989Z,59.50
2019-04-30T10:14:06.516Z,57.20
2019-04-30T10:16:36.651Z,55.40
2019-04-30T10:19:05.193Z,56.60
2019-04-30T10:21:33.719Z,56.00
2019-04-30T10:24:12.556Z,56.40
2019-04-30T10:26:32.618Z,58.80
2019-04-30T10:29:02.103Z,56.70
2019-04-30T10:31:30.614Z,57.00
2019-04-30T10:33:59.079Z,55.00
2019-04-30T10:36:29.378Z,54.90
2019-04-30T10:38:59.498Z,54.50
2019-04-30T10:41:28.774Z,54.70
2019-04-30T10:43:59.083Z,54.80
2019-04-30T10:46:27.760Z,52.30
2019-04-30T10:48:56.211Z,52.30
2019-04-30T10:51:25.051Z,52.40
2019-04-30T10:53:53.493Z,50.70
2019-04-30T10:56:22.125Z,51.20
2019-04-30T10:58:50.619Z,51.00
2019-04-30T11:01:19.378Z,51.90
2019-04-30T11:03:47.950Z,49.90
2019-04-30T11:06:16.471Z,49.20
2019-04-30T11:08:44.918Z,48.90
2019-04-30T11:11:13.434Z,49.60
2019-04-30T11:13:41.897Z,49.10
2019-04-30T11:16:14.771Z,46.80
2019-04-30T11:18:40.635Z,46.70
2019-04-30T11:21:09.820Z,46.70
2019-04-30T11:23:39.557Z,46.80
2019-04-30T11:26:08.905Z,45.60
2019-04-30T11:28:37.878Z,44.20
2019-04-30T11:31:27.067Z,45.90
2019-04-30T11:34:00.151Z,45.90
2019-04-30T11:36:29.212Z,46.20
2019-04-30T11:38:58.631Z,42.40
2019-04-30T11:41:31.034Z,42.80
2019-04-30T11:43:59.359Z,42.80
2019-04-30T11:46:47.120Z,42.10
2019-04-30T11:49:15.566Z,43.50
2019-04-30T11:51:44.046Z,42.00
2019-04-30T11:54:12.585Z,40.00
2019-04-30T11:56:41.034Z,40.50
2019-04-30T11:59:09.523Z,41.10
2019-04-30T12:01:38.144Z,39.60
2019-04-30T12:04:06.658Z,40.40
2019-04-30T12:06:35.114Z,40.60
2019-04-30T12:09:09.498Z,39.90
2019-04-30T12:11:39.684Z,39.10
2019-04-30T12:14:08.304Z,40.80
2019-04-30T12:16:36.760Z,38.60
2019-04-30T12:19:05.582Z,36.80
2019-04-30T12:21:34.030Z,36.60
2019-04-30T12:24:02.535Z,36.80
2019-04-30T12:26:31.118Z,37.00
2019-04-30T12:28:59.585Z,38.70
2019-04-30T12:31:29.701Z,36.50
2019-04-30T12:33:57.610Z,33.90
2019-04-30T12:36:26.066Z,33.00
2019-04-30T12:38:54.632Z,32.20
2019-04-30T12:41:23.155Z,33.40
2019-04-30T12:43:51.659Z,33.20
2019-04-30T12:46:21.302Z,31.50
2019-04-30T12:48:51.599Z,31.00
2019-04-30T12:51:21.814Z,31.30
2019-04-30T12:53:51.923Z,30.20
2019-04-30T12:56:26.972Z,30.00
2019-04-30T12:58:52.332Z,29.90
2019-04-30T13:01:20.788Z,29.80
2019-04-30T13:03:58.058Z,28.90
2019-04-30T13:06:20.245Z,28.20
2019-04-30T13:08:51.778Z,27.60
2019-04-30T13:11:20.854Z,27.10
2019-04-30T13:13:50.593Z,27.90
2019-04-30T13:16:19.378Z,27.80
2019-04-30T13:18:49.383Z,27.30
2019-04-30T13:21:18.489Z,26.80
2019-04-30T13:23:47.068Z,27.40
2019-04-30T13:26:15.518Z,28.70
2019-04-30T13:29:03.794Z,28.20
2019-04-30T13:31:32.260Z,28.10
2019-04-30T13:34:05.201Z,28.20
2019-04-30T13:36:33.727Z,28.10
2019-04-30T13:39:19.532Z,27.10
2019-04-30T13:41:51.058Z,25.30
2019-04-30T13:44:21.520Z,25.00
2019-04-30T13:46:49.205Z,26.30
2019-04-30T13:49:17.910Z,27.00
2019-04-30T13:51:46.465Z,27.00
2019-04-30T13:54:14.955Z,26.30
2019-04-30T13:56:43.418Z,27.90
2019-04-30T13:59:11.967Z,28.70
2019-04-30T14:01:40.427Z,26.20
2019-04-30T14:04:19.579Z,27.30
2019-04-30T14:06:49.680Z,26.00
2019-04-30T14:09:22.493Z,26.30
2019-04-30T14:11:50.959Z,27.00
2019-04-30T14:14:20.009Z,27.50
2019-04-30T14:16:48.730Z,27.50
2019-04-30T14:19:17.192Z,27.00
2019-04-30T14:21:45.718Z,28.10
2019-04-30T14:24:14.218Z,28.80
2019-04-30T14:26:42.752Z,28.70
2019-04-30T14:29:11.504Z,28.10
2019-04-30T14:31:39.955Z,28.00
2019-04-30T14:34:10.088Z,29.50
2019-04-30T14:36:39.212Z,28.80
2019-04-30T14:39:14.530Z,28.60
2019-04-30T14:41:40.345Z,29.80
2019-04-30T14:44:26.166Z,29.50
2019-04-30T14:46:57.026Z,29.00
2019-04-30T14:49:33.956Z,29.90
2019-04-30T14:52:03.190Z,29.50
2019-04-30T14:54:36.039Z,30.20
2019-04-30T14:57:09.434Z,29.30
2019-04-30T14:59:56.033Z,30.10
2019-04-30T15:02:26.178Z,29.80
2019-04-30T15:04:54.640Z,30.10
2019-04-30T15:07:23.189Z,29.30
2019-04-30T15:09:51.651Z,29.90
2019-04-30T15:12:20.547Z,30.60
2019-04-30T15:14:49.357Z,29.20
2019-04-30T15:17:17.985Z,30.10
2019-04-30T15:19:48.800Z,29.70
2019-04-30T15:22:16.634Z,30.60
2019-04-30T15:24:45.284Z,29.30
2019-04-30T15:27:13.816Z,29.80
2019-04-30T15:29:42.276Z,30.50
2019-04-30T15:32:10.783Z,29.60
2019-04-30T15:34:42.239Z,29.20
2019-04-30T15:37:19.221Z,28.90
2019-04-30T15:39:40.518Z,27.40
2019-04-30T15:42:09.878Z,27.70
2019-04-30T15:44:45.486Z,27.50
2019-04-30T15:47:09.131Z,27.50
2019-04-30T15:49:38.044Z,27.30
2019-04-30T15:52:08.974Z,29.10
2019-04-30T15:54:37.036Z,29.50
2019-04-30T15:57:05.899Z,29.60
2019-04-30T15:59:36.022Z,30.00
2019-04-30T16:02:15.058Z,31.60
2019-04-30T16:04:45.254Z,30.00
2019-04-30T16:07:13.704Z,29.70
2019-04-30T16:09:43.831Z,30.60
2019-04-30T16:12:20.090Z,30.00
2019-04-30T16:14:47.038Z,29.00
2019-04-30T16:17:20.418Z,28.70
2019-04-30T16:19:47.452Z,28.40
2019-04-30T16:22:16.014Z,27.30
2019-04-30T16:24:44.469Z,26.30
2019-04-30T16:27:12.957Z,26.90
2019-04-30T16:29:41.443Z,27.20
2019-04-30T16:32:09.892Z,26.80
2019-04-30T16:34:38.860Z,25.60
2019-04-30T16:37:07.521Z,23.90
2019-04-30T16:39:35.972Z,23.90
2019-04-30T16:42:04.637Z,24.70
2019-04-30T16:44:33.100Z,24.30
2019-04-30T16:47:13.083Z,23.60
2019-04-30T16:49:31.836Z,23.70
2019-04-30T16:52:01.548Z,23.90
2019-04-30T16:54:30.263Z,24.40
2019-04-30T16:57:04.148Z,23.80
2019-04-30T16:59:30.707Z,23.70
2019-04-30T17:02:00.406Z,23.80
2019-04-30T17:04:45.366Z,23.40
2019-04-30T17:07:15.523Z,24.20
2019-04-30T17:09:51.589Z,24.70
2019-04-30T17:12:24.535Z,24.50
2019-04-30T17:15:11.246Z,24.40
2019-04-30T17:17:40.575Z,25.70
2019-04-30T17:20:09.187Z,25.20
2019-04-30T17:22:39.369Z,25.10
2019-04-30T17:25:08.576Z,25.30
2019-04-30T17:27:39.146Z,26.50
2019-04-30T17:30:11.074Z,27.50
2019-04-30T17:32:39.647Z,27.70
2019-04-30T17:35:09.045Z,27.50
2019-04-30T17:37:37.677Z,27.90
2019-04-30T17:40:09.248Z,27.70
2019-04-30T17:42:37.352Z,28.80
2019-04-30T17:45:10.084Z,29.10
2019-04-30T17:47:38.600Z,28.80
2019-04-30T17:50:09.022Z,29.20
2019-04-30T17:52:37.614Z,28.90
2019-04-30T17:55:09.638Z,29.20
2019-04-30T17:57:40.265Z,29.70
2019-04-30T18:00:18.709Z,30.00
2019-04-30T18:02:42.042Z,30.60
2019-04-30T18:05:11.421Z,31.50
2019-04-30T18:07:40.242Z,35.90
2019-04-30T18:10:12.202Z,37.40
2019-04-30T18:12:40.650Z,39.70
2019-04-30T18:15:13.820Z,40.70
2019-04-30T18:17:43.961Z,41.80
2019-04-30T18:20:15.316Z,43.80
2019-04-30T18:22:45.583Z,45.50
2019-04-30T18:25:18.781Z,46.80
2019-04-30T18:27:54.689Z,48.60
2019-04-30T18:30:30.760Z,50.00
2019-04-30T18:32:59.206Z,51.30
2019-04-30T18:35:28.638Z,52.90
2019-04-30T18:37:58.599Z,54.60
2019-04-30T18:40:27.273Z,56.40
2019-04-30T18:42:55.805Z,57.70
2019-04-30T18:45:24.321Z,59.70
2019-04-30T18:47:52.782Z,61.30
2019-04-30T18:50:21.304Z,63.90
2019-04-30T18:52:51.361Z,66.30
2019-04-30T18:55:19.858Z,67.00
2019-04-30T18:57:56.282Z,68.00
2019-04-30T19:00:20.904Z,69.90
2019-04-30T19:02:49.361Z,71.40
2019-04-30T19:05:19.445Z,71.30
2019-04-30T19:07:55.336Z,72.30
2019-04-30T19:10:37.380Z,72.70
2019-04-30T19:13:10.428Z,74.10
2019-04-30T19:16:14.250Z,75.20
2019-04-30T19:18:23.891Z,75.90
2019-04-30T19:20:53.989Z,76.60
2019-04-30T19:23:22.468Z,78.00
2019-04-30T19:25:51.006Z,78.40
2019-04-30T19:28:19.562Z,79.80
2019-04-30T19:30:57.404Z,80.50
2019-04-30T19:33:18.241Z,80.60
2019-04-30T19:35:50.304Z,81.30
2019-04-30T19:38:16.930Z,81.30
2019-04-30T19:40:45.387Z,81.50
2019-04-30T19:43:13.838Z,82.30
2019-04-30T19:45:44.698Z,82.70
2019-04-30T19:48:11.935Z,83.00
2019-04-30T19:50:40.422Z,83.90
2019-04-30T19:53:09.042Z,84.10
2019-04-30T19:55:39.249Z,83.60
2019-04-30T19:58:07.149Z,84.30
2019-04-30T20:00:35.634Z,85.30
2019-04-30T20:03:04.200Z,85.60
2019-04-30T20:05:32.722Z,86.20
2019-04-30T20:08:01.256Z,86.50
2019-04-30T20:10:29.735Z,87.10
2019-04-30T20:12:58.776Z,87.50
2019-04-30T20:15:29.647Z,87.90
2019-04-30T20:17:58.345Z,88.40
2019-04-30T20:20:28.783Z,88.80
2019-04-30T20:22:57.446Z,89.30
2019-04-30T20:25:25.903Z,89.50
2019-04-30T20:27:54.350Z,89.80
2019-04-30T20:30:22.843Z,90.20
2019-04-30T20:32:51.468Z,90.10
2019-04-30T20:35:20.096Z,90.20
2019-04-30T20:38:06.711Z,90.10
2019-04-30T20:40:43.304Z,90.40
2019-04-30T20:43:08.462Z,90.40
2019-04-30T20:45:36.715Z,90.80
2019-04-30T20:48:05.308Z,90.60
2019-04-30T20:50:34.943Z,90.70
2019-04-30T20:53:03.390Z,90.90
2019-04-30T20:55:31.939Z,91.10
2019-04-30T20:58:00.387Z,91.40
2019-04-30T21:00:28.838Z,91.40
2019-04-30T21:02:57.380Z,91.30
2019-04-30T21:05:27.649Z,91.50
2019-04-30T21:07:56.450Z,91.60
2019-04-30T21:10:24.989Z,91.60
2019-04-30T21:12:53.480Z,91.60
2019-04-30T21:15:21.935Z,91.60
2019-04-30T21:17:50.586Z,91.70
2019-04-30T21:20:19.499Z,91.60
2019-04-30T21:22:49.465Z,91.40
2019-04-30T21:25:18.829Z,90.90
2019-04-30T21:27:49.874Z,90.20
2019-04-30T21:30:18.035Z,90.00
2019-04-30T21:32:51.211Z,89.60
2019-04-30T21:35:24.225Z,89.40
2019-04-30T21:37:54.622Z,90.00
2019-04-30T21:40:23.162Z,89.90
2019-04-30T21:42:51.687Z,88.60
2019-04-30T21:45:20.174Z,88.80
2019-04-30T21:47:56.146Z,88.60
2019-04-30T21:50:19.674Z,90.10
2019-04-30T21:52:49.567Z,90.30
2019-04-30T21:55:19.784Z,89.10
2019-04-30T21:57:49.635Z,89.70
2019-04-30T22:00:36.879Z,90.20
2019-04-30T22:03:07.108Z,90.20
2019-04-30T22:05:35.558Z,90.30
2019-04-30T22:08:04.298Z,90.30
2019-04-30T22:10:32.764Z,90.20
2019-04-30T22:13:01.227Z,90.40
2019-04-30T22:15:29.813Z,90.60
2019-04-30T22:17:58.266Z,90.90
2019-04-30T22:20:29.056Z,90.80
2019-04-30T22:22:56.962Z,91.20
2019-04-30T22:25:25.446Z,91.00
2019-04-30T22:27:53.974Z,91.20
2019-04-30T22:30:22.498Z,91.10
2019-04-30T22:32:51.028Z,91.30
2019-04-30T22:35:26.921Z,91.50
2019-04-30T22:38:09.300Z,91.10
2019-04-30T22:40:39.187Z,90.80
2019-04-30T22:43:09.330Z,90.80
2019-04-30T22:45:45.347Z,90.70
2019-04-30T22:48:13.807Z,90.80
2019-04-30T22:50:42.330Z,91.00
2019-04-30T22:53:10.849Z,91.10
2019-04-30T22:55:39.373Z,91.60
2019-04-30T22:58:07.826Z,91.90
2019-04-30T23:00:43.848Z,91.70
2019-04-30T23:03:14.081Z,91.60
2019-04-30T23:05:43.010Z,91.60
2019-04-30T23:08:11.467Z,91.90
2019-04-30T23:10:39.957Z,91.70
2019-04-30T23:13:08.636Z,91.70
2019-04-30T23:15:37.168Z,91.80
2019-04-30T23:18:05.774Z,91.60
2019-04-30T23:20:34.283Z,91.30
2019-04-30T23:23:02.734Z,91.50
2019-04-30T23:25:31.195Z,91.90
2019-04-30T23:27:59.701Z,91.80
2019-04-30T23:30:28.172Z,91.90
2019-04-30T23:32:56.623Z,92.10
2019-04-30T23:35:25.135Z,92.00
2019-04-30T23:37:53.604Z,91.80
2019-04-30T23:40:23.693Z,91.90
2019-04-30T23:42:53.820Z,91.80
2019-04-30T23:45:22.513Z,91.80
2019-04-30T23:47:51.079Z,91.80
2019-04-30T23:50:19.527Z,91.90
2019-04-30T23:52:48.123Z,91.90
2019-04-30T23:55:16.714Z,91.70
2019-04-30T23:57:45.470Z,91.60
